Time,TemperatureF,DewpointF,PressureIn,WindDirection,WindDirectionDegrees,WindSpeedMPH,WindSpeedGustMPH,Humidity,HourlyPrecipIn,Conditions,Clouds,dailyrainin,SolarRadiationWatts/m^2,SoftwareType,DateUTC
2013-04-11 00:01:00,51.3,32.3,29.95,ENE,65,0.0,0.0,48,0.00,,,0.00,0,LWC V2.00 B727,2013-04-11 07:01:00,
2013-04-11 00:06:00,51.4,31.9,29.95,ENE,65,0.0,1.0,47,0.00,,,0.00,0,LWC V2.00 B727,2013-04-11 07:06:00,
2013-04-11 00:11:00,51.7,32.1,29.95,ENE,65,0.0,1.0,47,0.00,,,0.00,0,LWC V2.00 B727,2013-04-11 07:11:00,
2013-04-11 00:16:00,51.8,31.7,29.95,ENE,65,0.0,0.0,46,0.00,,,0.00,0,LWC V2.00 B727,2013-04-11 07:16:00,
2013-04-11 00:21:00,51.7,32.1,29.95,ENE,65,0.0,3.0,47,0.00,,,0.00,0,LWC V2.00 B727,2013-04-11 07:21:00,
2013-04-11 00:26:00,50.4,33.0,29.95,ENE,76,5.0,5.0,51,0.00,,,0.00,0,LWC V2.00 B727,2013-04-11 07:26:00,
2013-04-11 00:31:00,49.9,33.0,29.94,ENE,69,4.0,4.0,52,0.00,,,0.00,0,LWC V2.00 B727,2013-04-11 07:31:00,
2013-04-11 00:36:00,49.9,33.0,29.94,ENE,71,4.0,4.0,52,0.00,,,0.00,0,LWC V2.00 B727,2013-04-11 07:36:00,
2013-04-11 00:41:00,50.0,32.6,29.94,ENE,74,2.0,4.0,51,0.00,,,0.00,0,LWC V2.00 B727,2013-04-11 07:41:00,
2013-04-11 00:46:00,50.3,32.4,29.94,ENE,74,2.0,2.0,50,0.00,,,0.00,0,LWC V2.00 B727,2013-04-11 07:46:00,
2013-04-11 00:51:00,50.5,32.1,29.94,ENE,74,0.0,0.0,49,0.00,,,0.00,0,LWC V2.00 B727,2013-04-11 07:51:00,
2013-04-11 00:56:00,50.6,32.2,29.94,ENE,74,1.0,2.0,49,0.00,,,0.00,0,LWC V2.00 B727,2013-04-11 07:56:00,
2013-04-11 01:01:00,50.4,32.0,29.94,ENE,74,0.0,1.0,49,0.00,,,0.00,0,LWC V2.00 B727,2013-04-11 08:01:00,
2013-04-11 01:06:00,50.4,31.5,29.94,ENE,74,0.0,1.0,48,0.00,,,0.00,0,LWC V2.00 B727,2013-04-11 08:06:00,
2013-04-11 01:11:00,50.5,31.5,29.94,ENE,74,0.0,0.0,48,0.00,,,0.00,0,LWC V2.00 B727,2013-04-11 08:11:00,
2013-04-11 01:16:00,50.6,31.6,29.94,ENE,74,0.0,0.0,48,0.00,,,0.00,0,LWC V2.00 B727,2013-04-11 08:16:00,
2013-04-11 01:21:00,50.3,31.4,29.94,ENE,74,0.0,1.0,48,0.00,,,0.00,0,LWC V2.00 B727,2013-04-11 08:21:00,
2013-04-11 01:26:00,50.9,30.9,29.94,ENE,74,1.0,1.0,46,0.00,,,0.00,0,LWC V2.00 B727,2013-04-11 08:26:00,
2013-04-11 01:31:00,49.5,32.6,29.94,ENE,74,0.0,2.0,52,0.00,,,0.00,0,LWC V2.00 B727,2013-04-11 08:31:00,
2013-04-11 01:36:00,47.7,32.3,29.93,ENE,74,0.0,0.0,55,0.00,,,0.00,0,LWC V2.00 B727,2013-04-11 08:36:00,
2013-04-11 01:41:00,46.6,33.0,29.93,ENE,74,0.0,1.0,59,0.00,,,0.00,0,LWC V2.00 B727,2013-04-11 08:41:00,
2013-04-11 01:46:00,46.3,33.2,29.93,ENE,74,0.0,0.0,60,0.00,,,0.00,0,LWC V2.00 B727,2013-04-11 08:46:00,
2013-04-11 01:51:00,46.3,33.2,29.93,ENE,74,0.0,0.0,60,0.00,,,0.00,0,LWC V2.00 B727,2013-04-11 08:51:00,
2013-04-11 01:56:00,47.0,33.0,29.93,ENE,74,1.0,1.0,58,0.00,,,0.00,0,LWC V2.00 B727,2013-04-11 08:56:00,
2013-04-11 02:01:00,48.3,32.4,29.92,ENE,74,0.0,0.0,54,0.00,,,0.00,0,LWC V2.00 B727,2013-04-11 09:01:00,
2013-04-11 02:06:00,49.3,31.5,29.92,ENE,74,0.0,2.0,50,0.00,,,0.00,0,LWC V2.00 B727,2013-04-11 09:06:00,
2013-04-11 02:11:00,49.9,31.5,29.92,ENE,74,0.0,2.0,49,0.00,,,0.00,0,LWC V2.00 B727,2013-04-11 09:11:00,
2013-04-11 02:16:00,50.1,31.2,29.92,ENE,74,0.0,0.0,48,0.00,,,0.00,0,LWC V2.00 B727,2013-04-11 09:16:00,
2013-04-11 02:21:00,49.4,31.5,29.92,ENE,74,0.0,0.0,50,0.00,,,0.00,0,LWC V2.00 B727,2013-04-11 09:21:00,
2013-04-11 02:26:00,48.8,31.0,29.92,ENE,74,0.0,0.0,50,0.00,,,0.00,0,LWC V2.00 B727,2013-04-11 09:26:00,
2013-04-11 02:31:00,48.7,31.9,29.92,ENE,74,0.0,0.0,52,0.00,,,0.00,0,LWC V2.00 B727,2013-04-11 09:31:00,
2013-04-11 02:36:00,48.1,31.3,29.92,ENE,74,0.0,0.0,52,0.00,,,0.00,0,LWC V2.00 B727,2013-04-11 09:36:00,
2013-04-11 02:41:00,47.8,31.5,29.92,ENE,74,0.0,0.0,53,0.00,,,0.00,0,LWC V2.00 B727,2013-04-11 09:41:00,
2013-04-11 02:46:00,48.4,31.1,29.92,ENE,74,0.0,0.0,51,0.00,,,0.00,0,LWC V2.00 B727,2013-04-11 09:46:00,
2013-04-11 02:51:00,49.3,31.0,29.91,ENE,74,0.0,0.0,49,0.00,,,0.00,0,LWC V2.00 B727,2013-04-11 09:51:00,
2013-04-11 02:56:00,49.7,30.8,29.91,ENE,74,0.0,0.0,48,0.00,,,0.00,0,LWC V2.00 B727,2013-04-11 09:56:00,
2013-04-11 03:01:00,50.2,30.8,29.91,ENE,74,0.0,0.0,47,0.00,,,0.00,0,LWC V2.00 B727,2013-04-11 10:01:00,
2013-04-11 03:06:00,50.5,30.5,29.91,ENE,74,0.0,0.0,46,0.00,,,0.00,0,LWC V2.00 B727,2013-04-11 10:06:00,
2013-04-11 03:11:00,49.8,30.9,29.91,ENE,74,0.0,0.0,48,0.00,,,0.00,0,LWC V2.00 B727,2013-04-11 10:11:00,
2013-04-11 03:16:00,49.6,30.2,29.91,ENE,74,0.0,0.0,47,0.00,,,0.00,0,LWC V2.00 B727,2013-04-11 10:16:00,
2013-04-11 03:21:00,50.2,30.2,29.90,ENE,74,1.0,1.0,46,0.00,,,0.00,0,LWC V2.00 B727,2013-04-11 10:21:00,
2013-04-11 03:26:00,50.6,30.6,29.90,ENE,74,0.0,1.0,46,0.00,,,0.00,0,LWC V2.00 B727,2013-04-11 10:26:00,
2013-04-11 03:31:00,50.7,30.1,29.90,ENE,74,1.0,3.0,45,0.00,,,0.00,0,LWC V2.00 B727,2013-04-11 10:31:00,
2013-04-11 03:36:00,50.4,30.4,29.90,ENE,74,0.0,3.0,46,0.00,,,0.00,0,LWC V2.00 B727,2013-04-11 10:36:00,
2013-04-11 03:41:00,50.1,30.7,29.90,ENE,74,0.0,0.0,47,0.00,,,0.00,0,LWC V2.00 B727,2013-04-11 10:41:00,
2013-04-11 03:46:00,50.4,30.9,29.90,ENE,74,1.0,2.0,47,0.00,,,0.00,0,LWC V2.00 B727,2013-04-11 10:46:00,
2013-04-11 03:51:00,50.2,30.8,29.90,ENE,74,1.0,1.0,47,0.00,,,0.00,0,LWC V2.00 B727,2013-04-11 10:51:00,
2013-04-11 03:56:00,50.1,30.7,29.90,ENE,74,2.0,2.0,47,0.00,,,0.00,0,LWC V2.00 B727,2013-04-11 10:56:00,
2013-04-11 04:01:00,50.1,30.7,29.90,ENE,74,3.0,4.0,47,0.00,,,0.00,0,LWC V2.00 B727,2013-04-11 11:01:00,
2013-04-11 04:06:00,49.7,30.8,29.90,ENE,74,1.0,3.0,48,0.00,,,0.00,0,LWC V2.00 B727,2013-04-11 11:06:00,
2013-04-11 04:11:00,49.7,30.8,29.90,ENE,74,1.0,1.0,48,0.00,,,0.00,0,LWC V2.00 B727,2013-04-11 11:11:00,
2013-04-11 04:16:00,49.5,31.1,29.90,ENE,74,0.0,2.0,49,0.00,,,0.00,0,LWC V2.00 B727,2013-04-11 11:16:00,
2013-04-11 04:21:00,49.4,31.0,29.90,ENE,74,0.0,0.0,49,0.00,,,0.00,0,LWC V2.00 B727,2013-04-11 11:21:00,
2013-04-11 04:26:00,49.5,30.6,29.90,ENE,74,0.0,0.0,48,0.00,,,0.00,0,LWC V2.00 B727,2013-04-11 11:26:00,
2013-04-11 04:31:00,49.6,30.7,29.90,ENE,74,0.0,0.0,48,0.00,,,0.00,0,LWC V2.00 B727,2013-04-11 11:31:00,
2013-04-11 04:36:00,48.2,30.9,29.90,ENE,74,0.0,0.0,51,0.00,,,0.00,0,LWC V2.00 B727,2013-04-11 11:36:00,
2013-04-11 04:41:00,47.8,31.0,29.90,ENE,74,0.0,0.0,52,0.00,,,0.00,0,LWC V2.00 B727,2013-04-11 11:41:00,
2013-04-11 04:46:00,48.2,30.9,29.90,ENE,74,0.0,0.0,51,0.00,,,0.00,0,LWC V2.00 B727,2013-04-11 11:46:00,
2013-04-11 04:51:00,48.8,30.5,29.90,ENE,74,3.0,4.0,49,0.00,,,0.00,0,LWC V2.00 B727,2013-04-11 11:51:00,
2013-04-11 04:56:00,49.2,30.9,29.90,ENE,74,2.0,4.0,49,0.00,,,0.00,0,LWC V2.00 B727,2013-04-11 11:56:00,
2013-04-11 05:01:00,49.4,31.0,29.90,ENE,74,1.0,2.0,49,0.00,,,0.00,0,LWC V2.00 B727,2013-04-11 12:01:00,
2013-04-11 05:06:00,49.5,30.6,29.90,ENE,74,2.0,4.0,48,0.00,,,0.00,0,LWC V2.00 B727,2013-04-11 12:06:00,
2013-04-11 05:11:00,49.4,30.5,29.90,ENE,74,0.0,2.0,48,0.00,,,0.00,0,LWC V2.00 B727,2013-04-11 12:11:00,
2013-04-11 05:16:00,49.4,30.5,29.90,ENE,74,1.0,3.0,48,0.00,,,0.00,0,LWC V2.00 B727,2013-04-11 12:16:00,
2013-04-11 05:21:00,49.5,30.6,29.90,ENE,74,0.0,1.0,48,0.00,,,0.00,0,LWC V2.00 B727,2013-04-11 12:21:00,
2013-04-11 05:27:00,49.2,30.9,29.90,ENE,74,0.0,0.0,49,0.00,,,0.00,0,LWC V2.00 B727,2013-04-11 12:27:00,
2013-04-11 05:32:00,48.6,30.8,29.90,ENE,74,0.0,0.0,50,0.00,,,0.00,0,LWC V2.00 B727,2013-04-11 12:32:00,
2013-04-11 05:37:00,48.6,30.3,29.90,ENE,74,0.0,0.0,49,0.00,,,0.00,0,LWC V2.00 B727,2013-04-11 12:37:00,
2013-04-11 05:42:00,48.8,30.0,29.90,ENE,74,0.0,0.0,48,0.00,,,0.00,0,LWC V2.00 B727,2013-04-11 12:42:00,
2013-04-11 05:47:00,48.7,29.9,29.90,ENE,74,0.0,0.0,48,0.00,,,0.00,0,LWC V2.00 B727,2013-04-11 12:47:00,
2013-04-11 05:52:00,48.7,29.9,29.91,ENE,74,0.0,0.0,48,0.00,,,0.00,0,LWC V2.00 B727,2013-04-11 12:52:00,
2013-04-11 05:57:00,48.7,29.9,29.91,ENE,74,0.0,0.0,48,0.00,,,0.00,0,LWC V2.00 B727,2013-04-11 12:57:00,
2013-04-11 06:02:00,48.5,29.7,29.91,ENE,74,0.0,2.0,48,0.00,,,0.00,7,LWC V2.00 B727,2013-04-11 13:02:00,
2013-04-11 06:07:00,48.7,30.4,29.91,ENE,74,0.0,1.0,49,0.00,,,0.00,9,LWC V2.00 B727,2013-04-11 13:07:00,
2013-04-11 06:12:00,48.7,30.9,29.91,ENE,74,0.0,1.0,50,0.00,,,0.00,11,LWC V2.00 B727,2013-04-11 13:12:00,
2013-04-11 06:17:00,48.1,30.8,29.91,ENE,74,0.0,0.0,51,0.00,,,0.00,14,LWC V2.00 B727,2013-04-11 13:17:00,
2013-04-11 06:22:00,47.7,31.4,29.91,ENE,74,2.0,2.0,53,0.00,,,0.00,16,LWC V2.00 B727,2013-04-11 13:22:00,
2013-04-11 06:27:00,47.6,31.3,29.91,ENE,74,0.0,2.0,53,0.00,,,0.00,18,LWC V2.00 B727,2013-04-11 13:27:00,
2013-04-11 06:32:00,47.5,31.2,29.92,ENE,74,2.0,2.0,53,0.00,,,0.00,19,LWC V2.00 B727,2013-04-11 13:32:00,
2013-04-11 06:37:00,48.1,30.8,29.92,ENE,74,0.0,1.0,51,0.00,,,0.00,21,LWC V2.00 B727,2013-04-11 13:37:00,
2013-04-11 06:42:00,48.1,31.3,29.92,ENE,74,0.0,0.0,52,0.00,,,0.00,23,LWC V2.00 B727,2013-04-11 13:42:00,
2013-04-11 06:47:00,48.4,31.1,29.92,ENE,74,0.0,0.0,51,0.00,,,0.00,25,LWC V2.00 B727,2013-04-11 13:47:00,
2013-04-11 06:52:00,48.7,31.4,29.92,East,88,2.0,2.0,51,0.00,,,0.00,137,LWC V2.00 B727,2013-04-11 13:52:00,
2013-04-11 06:57:00,49.7,31.8,29.92,NE,38,0.0,3.0,50,0.00,,,0.00,155,LWC V2.00 B727,2013-04-11 13:57:00,
2013-04-11 07:02:00,50.8,32.3,29.92,NE,38,2.0,2.0,49,0.00,,,0.00,172,LWC V2.00 B727,2013-04-11 14:02:00,
2013-04-11 07:07:00,51.8,32.7,29.92,NE,38,0.0,1.0,48,0.00,,,0.00,190,LWC V2.00 B727,2013-04-11 14:07:00,
2013-04-11 07:12:00,52.8,33.1,29.93,NE,38,0.0,0.0,47,0.00,,,0.00,204,LWC V2.00 B727,2013-04-11 14:12:00,
2013-04-11 07:17:00,53.7,33.4,29.92,NE,38,0.0,0.0,46,0.00,,,0.00,221,LWC V2.00 B727,2013-04-11 14:17:00,
2013-04-11 07:22:00,54.6,33.7,29.92,NE,38,0.0,2.0,45,0.00,,,0.00,241,LWC V2.00 B727,2013-04-11 14:22:00,
2013-04-11 07:27:00,55.2,33.1,29.92,NE,38,0.0,0.0,43,0.00,,,0.00,258,LWC V2.00 B727,2013-04-11 14:27:00,
2013-04-11 07:32:00,56.0,33.8,29.92,NE,38,0.0,1.0,43,0.00,,,0.00,278,LWC V2.00 B727,2013-04-11 14:32:00,
2013-04-11 07:37:00,56.6,31.9,29.92,NE,38,0.0,3.0,39,0.00,,,0.00,295,LWC V2.00 B727,2013-04-11 14:37:00,
2013-04-11 07:42:00,57.4,32.6,29.92,NE,38,0.0,1.0,39,0.00,,,0.00,315,LWC V2.00 B727,2013-04-11 14:42:00,
2013-04-11 07:47:00,57.4,33.3,29.92,NE,38,0.0,0.0,40,0.00,,,0.00,332,LWC V2.00 B727,2013-04-11 14:47:00,
2013-04-11 07:52:00,57.3,33.8,29.93,NE,38,0.0,0.0,41,0.00,,,0.00,348,LWC V2.00 B727,2013-04-11 14:52:00,
2013-04-11 07:57:00,57.1,33.6,29.93,NE,38,0.0,0.0,41,0.00,,,0.00,367,LWC V2.00 B727,2013-04-11 14:57:00,
2013-04-11 08:02:00,57.7,34.2,29.93,NE,38,0.0,1.0,41,0.00,,,0.00,385,LWC V2.00 B727,2013-04-11 15:02:00,
2013-04-11 08:07:00,57.9,32.5,29.93,NE,38,0.0,1.0,38,0.00,,,0.00,404,LWC V2.00 B727,2013-04-11 15:07:00,
2013-04-11 08:12:00,58.0,32.5,29.92,NE,38,0.0,0.0,38,0.00,,,0.00,422,LWC V2.00 B727,2013-04-11 15:12:00,
2013-04-11 08:17:00,59.1,33.5,29.92,NE,38,0.0,1.0,38,0.00,,,0.00,441,LWC V2.00 B727,2013-04-11 15:17:00,
2013-04-11 08:22:00,59.2,31.6,29.92,NE,38,0.0,1.0,35,0.00,,,0.00,455,LWC V2.00 B727,2013-04-11 15:22:00,
2013-04-11 08:27:00,58.6,31.7,29.92,NE,38,0.0,1.0,36,0.00,,,0.00,473,LWC V2.00 B727,2013-04-11 15:27:00,
2013-04-11 08:32:00,58.6,31.7,29.92,NE,38,0.0,0.0,36,0.00,,,0.00,490,LWC V2.00 B727,2013-04-11 15:32:00,
2013-04-11 08:37:00,59.0,31.4,29.92,NE,38,0.0,2.0,35,0.00,,,0.00,508,LWC V2.00 B727,2013-04-11 15:37:00,
2013-04-11 08:42:00,59.1,30.8,29.92,NE,38,0.0,0.0,34,0.00,,,0.00,526,LWC V2.00 B727,2013-04-11 15:42:00,
2013-04-11 08:47:00,60.2,31.0,29.92,NE,37,2.0,2.0,33,0.00,,,0.00,543,LWC V2.00 B727,2013-04-11 15:47:00,
2013-04-11 08:52:00,60.6,30.6,29.92,NE,38,0.0,0.0,32,0.00,,,0.00,561,LWC V2.00 B727,2013-04-11 15:52:00,
2013-04-11 08:57:00,60.6,30.6,29.92,NE,38,1.0,2.0,32,0.00,,,0.00,577,LWC V2.00 B727,2013-04-11 15:57:00,
2013-04-11 09:02:00,60.7,29.9,29.92,NE,38,2.0,3.0,31,0.00,,,0.00,591,LWC V2.00 B727,2013-04-11 16:02:00,
2013-04-11 09:07:00,61.2,29.5,29.91,NE,38,0.0,2.0,30,0.00,,,0.00,605,LWC V2.00 B727,2013-04-11 16:07:00,
2013-04-11 09:12:00,61.7,30.0,29.91,NE,37,0.0,3.0,30,0.00,,,0.00,621,LWC V2.00 B727,2013-04-11 16:12:00,
2013-04-11 09:17:00,61.7,30.8,29.91,NE,37,2.0,2.0,31,0.00,,,0.00,636,LWC V2.00 B727,2013-04-11 16:17:00,
2013-04-11 09:22:00,62.3,30.5,29.91,West,273,0.0,0.0,30,0.00,,,0.00,650,LWC V2.00 B727,2013-04-11 16:22:00,
2013-04-11 09:27:00,62.1,28.6,29.91,West,272,0.0,0.0,28,0.00,,,0.00,668,LWC V2.00 B727,2013-04-11 16:27:00,
2013-04-11 09:32:00,62.4,29.7,29.91,West,271,0.0,0.0,29,0.00,,,0.00,680,LWC V2.00 B727,2013-04-11 16:32:00,
2013-04-11 09:37:00,63.3,29.6,29.91,SSW,203,0.0,3.0,28,0.00,,,0.00,696,LWC V2.00 B727,2013-04-11 16:37:00,
2013-04-11 09:42:00,64.1,30.3,29.91,SSE,148,3.0,3.0,28,0.00,,,0.00,710,LWC V2.00 B727,2013-04-11 16:42:00,
2013-04-11 09:47:00,64.2,30.4,29.91,WSW,237,3.0,7.0,28,0.00,,,0.00,724,LWC V2.00 B727,2013-04-11 16:47:00,
2013-04-11 09:52:00,64.3,31.4,29.91,SSW,192,1.0,3.0,29,0.00,,,0.00,735,LWC V2.00 B727,2013-04-11 16:52:00,
2013-04-11 09:57:00,65.0,30.2,29.91,SSW,211,2.0,4.0,27,0.00,,,0.00,747,LWC V2.00 B727,2013-04-11 16:57:00,
2013-04-11 10:02:00,65.9,30.0,29.91,WSW,252,1.0,3.0,26,0.00,,,0.00,759,LWC V2.00 B727,2013-04-11 17:02:00,
2013-04-11 10:07:00,66.0,31.1,29.91,WSW,237,2.0,7.0,27,0.00,,,0.00,770,LWC V2.00 B727,2013-04-11 17:07:00,
2013-04-11 10:12:00,65.7,30.8,29.90,WSW,238,3.0,7.0,27,0.00,,,0.00,780,LWC V2.00 B727,2013-04-11 17:12:00,
2013-04-11 10:17:00,65.8,29.0,29.90,WSW,254,1.0,7.0,25,0.00,,,0.00,795,LWC V2.00 B727,2013-04-11 17:17:00,
2013-04-11 10:22:00,66.0,31.1,29.90,SW,231,4.0,6.0,27,0.00,,,0.00,807,LWC V2.00 B727,2013-04-11 17:22:00,
2013-04-11 10:27:00,65.6,30.7,29.90,SW,232,3.0,5.0,27,0.00,,,0.00,817,LWC V2.00 B727,2013-04-11 17:27:00,
2013-04-11 10:32:00,65.4,29.6,29.90,SSW,210,3.0,6.0,26,0.00,,,0.00,826,LWC V2.00 B727,2013-04-11 17:32:00,
2013-04-11 10:37:00,66.9,29.9,29.90,WSW,250,2.0,4.0,25,0.00,,,0.00,835,LWC V2.00 B727,2013-04-11 17:37:00,
2013-04-11 10:42:00,66.8,29.8,29.90,SW,221,3.0,4.0,25,0.00,,,0.00,846,LWC V2.00 B727,2013-04-11 17:42:00,
2013-04-11 10:47:00,67.8,30.7,29.89,West,268,0.0,8.0,25,0.00,,,0.00,856,LWC V2.00 B727,2013-04-11 17:47:00,
2013-04-11 10:52:00,67.7,30.6,29.89,North,355,0.0,4.0,25,0.00,,,0.00,863,LWC V2.00 B727,2013-04-11 17:52:00,
2013-04-11 10:57:00,68.4,30.2,29.89,NNW,342,0.0,4.0,24,0.00,,,0.00,874,LWC V2.00 B727,2013-04-11 17:57:00,
2013-04-11 11:02:00,67.9,29.8,29.88,NNW,348,0.0,1.0,24,0.00,,,0.00,882,LWC V2.00 B727,2013-04-11 18:02:00,
2013-04-11 11:07:00,68.5,29.2,29.88,North,350,0.0,1.0,23,0.00,,,0.00,891,LWC V2.00 B727,2013-04-11 18:07:00,
2013-04-11 11:12:00,69.1,29.7,29.88,West,276,0.0,3.0,23,0.00,,,0.00,895,LWC V2.00 B727,2013-04-11 18:12:00,
2013-04-11 11:17:00,68.6,28.2,29.88,West,264,1.0,3.0,22,0.00,,,0.00,904,LWC V2.00 B727,2013-04-11 18:17:00,
2013-04-11 11:22:00,67.2,28.1,29.88,West,262,0.0,2.0,23,0.00,,,0.00,907,LWC V2.00 B727,2013-04-11 18:22:00,
2013-04-11 11:27:00,68.6,30.4,29.87,North,350,0.0,2.0,24,0.00,,,0.00,912,LWC V2.00 B727,2013-04-11 18:27:00,
2013-04-11 11:32:00,69.8,30.3,29.87,WNW,299,4.0,7.0,23,0.00,,,0.00,918,LWC V2.00 B727,2013-04-11 18:32:00,
2013-04-11 11:37:00,69.3,29.9,29.87,SSW,196,7.0,7.0,23,0.00,,,0.00,923,LWC V2.00 B727,2013-04-11 18:37:00,
2013-04-11 11:42:00,68.8,29.5,29.87,SSE,156,2.0,6.0,23,0.00,,,0.00,926,LWC V2.00 B727,2013-04-11 18:42:00,
2013-04-11 11:47:00,68.6,28.2,29.87,North,5,0.0,4.0,22,0.00,,,0.00,933,LWC V2.00 B727,2013-04-11 18:47:00,
2013-04-11 11:52:00,67.8,28.6,29.86,WSW,240,0.0,3.0,23,0.00,,,0.00,933,LWC V2.00 B727,2013-04-11 18:52:00,
2013-04-11 11:57:00,69.3,31.0,29.86,WSW,238,0.0,4.0,24,0.00,,,0.00,939,LWC V2.00 B727,2013-04-11 18:57:00,
2013-04-11 12:02:00,70.0,29.4,29.86,SW,225,4.0,7.0,22,0.00,,,0.00,940,LWC V2.00 B727,2013-04-11 19:02:00,
2013-04-11 12:07:00,70.3,30.7,29.85,West,262,0.0,4.0,23,0.00,,,0.00,944,LWC V2.00 B727,2013-04-11 19:07:00,
2013-04-11 12:12:00,70.6,29.9,29.85,WSW,240,3.0,6.0,22,0.00,,,0.00,942,LWC V2.00 B727,2013-04-11 19:12:00,
2013-04-11 12:17:00,70.7,28.8,29.85,WSW,247,2.0,7.0,21,0.00,,,0.00,946,LWC V2.00 B727,2013-04-11 19:17:00,
2013-04-11 12:22:00,70.3,29.7,29.84,SSE,161,0.0,4.0,22,0.00,,,0.00,944,LWC V2.00 B727,2013-04-11 19:22:00,
2013-04-11 12:27:00,71.5,29.5,29.84,WSW,250,1.0,4.0,21,0.00,,,0.00,946,LWC V2.00 B727,2013-04-11 19:27:00,
2013-04-11 12:32:00,72.4,30.3,29.85,WSW,257,3.0,6.0,21,0.00,,,0.00,947,LWC V2.00 B727,2013-04-11 19:32:00,
2013-04-11 12:37:00,70.8,28.9,29.84,NW,324,1.0,4.0,21,0.00,,,0.00,942,LWC V2.00 B727,2013-04-11 19:37:00,
2013-04-11 12:42:00,72.1,30.0,29.84,SSE,159,7.0,7.0,21,0.00,,,0.00,944,LWC V2.00 B727,2013-04-11 19:42:00,
2013-04-11 12:47:00,72.2,30.1,29.84,South,184,1.0,3.0,21,0.00,,,0.00,940,LWC V2.00 B727,2013-04-11 19:47:00,
2013-04-11 12:52:00,71.5,28.3,29.84,NNE,30,1.0,8.0,20,0.00,,,0.00,939,LWC V2.00 B727,2013-04-11 19:52:00,
2013-04-11 12:57:00,72.1,28.8,29.84,East,80,2.0,6.0,20,0.00,,,0.00,935,LWC V2.00 B727,2013-04-11 19:57:00,
2013-04-11 13:02:00,72.1,28.8,29.83,ESE,115,2.0,6.0,20,0.00,,,0.00,933,LWC V2.00 B727,2013-04-11 20:02:00,
2013-04-11 13:07:00,72.5,30.3,29.83,East,90,2.0,3.0,21,0.00,,,0.00,930,LWC V2.00 B727,2013-04-11 20:07:00,
2013-04-11 13:12:00,72.9,28.2,29.83,East,96,3.0,5.0,19,0.00,,,0.00,925,LWC V2.00 B727,2013-04-11 20:12:00,
2013-04-11 13:17:00,73.4,31.1,29.82,East,95,1.0,3.0,21,0.00,,,0.00,926,LWC V2.00 B727,2013-04-11 20:17:00,
2013-04-11 13:22:00,73.1,28.4,29.82,SW,220,2.0,3.0,19,0.00,,,0.00,919,LWC V2.00 B727,2013-04-11 20:22:00,
2013-04-11 13:27:00,74.3,29.4,29.82,SSW,204,6.0,7.0,19,0.00,,,0.00,914,LWC V2.00 B727,2013-04-11 20:27:00,
2013-04-11 13:32:00,74.2,30.5,29.81,WNW,294,5.0,5.0,20,0.00,,,0.00,907,LWC V2.00 B727,2013-04-11 20:32:00,
2013-04-11 13:37:00,76.0,29.4,29.81,SW,234,5.0,8.0,18,0.00,,,0.00,902,LWC V2.00 B727,2013-04-11 20:37:00,
2013-04-11 13:42:00,74.7,28.4,29.81,SW,220,0.0,1.0,18,0.00,,,0.00,902,LWC V2.00 B727,2013-04-11 20:42:00,
2013-04-11 13:47:00,75.6,30.4,29.80,SW,229,1.0,3.0,19,0.00,,,0.00,895,LWC V2.00 B727,2013-04-11 20:47:00,
2013-04-11 13:52:00,75.1,28.7,29.80,SW,235,2.0,2.0,18,0.00,,,0.00,907,LWC V2.00 B727,2013-04-11 20:52:00,
2013-04-11 13:57:00,74.2,28.0,29.80,NNW,344,0.0,4.0,18,0.00,,,0.00,921,LWC V2.00 B727,2013-04-11 20:57:00,
2013-04-11 14:02:00,76.0,28.0,29.80,West,273,1.0,4.0,17,0.00,,,0.00,963,LWC V2.00 B727,2013-04-11 21:02:00,
2013-04-11 14:07:00,76.4,28.4,29.79,North,5,2.0,3.0,17,0.00,,,0.00,988,LWC V2.00 B727,2013-04-11 21:07:00,
2013-04-11 14:12:00,75.5,29.0,29.79,ENE,57,1.0,3.0,18,0.00,,,0.00,965,LWC V2.00 B727,2013-04-11 21:12:00,
2013-04-11 14:17:00,75.7,29.2,29.79,NW,325,3.0,4.0,18,0.00,,,0.00,963,LWC V2.00 B727,2013-04-11 21:17:00,
2013-04-11 14:22:00,77.4,29.2,29.78,SSW,211,6.0,6.0,17,0.00,,,0.00,942,LWC V2.00 B727,2013-04-11 21:22:00,
2013-04-11 14:27:00,77.5,29.2,29.78,SW,224,3.0,7.0,17,0.00,,,0.00,932,LWC V2.00 B727,2013-04-11 21:27:00,
2013-04-11 14:32:00,76.5,27.0,29.78,SSW,213,4.0,5.0,16,0.00,,,0.00,687,LWC V2.00 B727,2013-04-11 21:32:00,
2013-04-11 14:37:00,76.5,28.4,29.77,West,274,3.0,5.0,17,0.00,,,0.00,912,LWC V2.00 B727,2013-04-11 21:37:00,
2013-04-11 14:42:00,75.8,27.9,29.77,SW,222,3.0,7.0,17,0.00,,,0.00,374,LWC V2.00 B727,2013-04-11 21:42:00,
2013-04-11 14:47:00,75.6,29.1,29.76,WSW,246,2.0,4.0,18,0.00,,,0.00,336,LWC V2.00 B727,2013-04-11 21:47:00,
2013-04-11 14:52:00,74.8,28.5,29.76,SW,216,0.0,2.0,18,0.00,,,0.00,527,LWC V2.00 B727,2013-04-11 21:52:00,
2013-04-11 14:57:00,75.1,30.0,29.76,SW,229,0.0,4.0,19,0.00,,,0.00,431,LWC V2.00 B727,2013-04-11 21:57:00,
2013-04-11 15:02:00,75.6,30.4,29.76,North,5,2.0,6.0,19,0.00,,,0.00,396,LWC V2.00 B727,2013-04-11 22:02:00,
2013-04-11 15:07:00,75.9,29.3,29.76,North,0,5.0,8.0,18,0.00,,,0.00,492,LWC V2.00 B727,2013-04-11 22:07:00,
2013-04-11 15:12:00,75.7,27.8,29.75,NNW,348,4.0,4.0,17,0.00,,,0.00,336,LWC V2.00 B727,2013-04-11 22:12:00,
2013-04-11 15:17:00,75.1,27.3,29.75,North,5,5.0,5.0,17,0.00,,,0.00,387,LWC V2.00 B727,2013-04-11 22:17:00,
2013-04-11 15:22:00,75.3,28.9,29.75,North,5,0.0,4.0,18,0.00,,,0.00,735,LWC V2.00 B727,2013-04-11 22:22:00,
2013-04-11 15:27:00,76.8,27.2,29.74,North,5,3.0,6.0,16,0.00,,,0.00,770,LWC V2.00 B727,2013-04-11 22:27:00,
2013-04-11 15:32:00,77.5,29.2,29.74,NE,38,4.0,7.0,17,0.00,,,0.00,701,LWC V2.00 B727,2013-04-11 22:32:00,
2013-04-11 15:37:00,78.3,28.4,29.74,West,281,2.0,3.0,16,0.00,,,0.00,724,LWC V2.00 B727,2013-04-11 22:37:00,
2013-04-11 15:42:00,77.2,26.0,29.74,WNW,286,1.0,2.0,15,0.00,,,0.00,636,LWC V2.00 B727,2013-04-11 22:42:00,
2013-04-11 15:47:00,76.4,25.3,29.74,NW,317,2.0,4.0,15,0.00,,,0.00,387,LWC V2.00 B727,2013-04-11 22:47:00,
2013-04-11 15:52:00,74.8,27.1,29.74,North,5,0.0,1.0,17,0.00,,,0.00,612,LWC V2.00 B727,2013-04-11 22:52:00,
2013-04-11 15:57:00,75.6,24.7,29.74,West,279,6.0,9.0,15,0.00,,,0.00,232,LWC V2.00 B727,2013-04-11 22:57:00,
2013-04-11 16:02:00,74.6,23.9,29.74,NW,304,2.0,4.0,15,0.00,,,0.00,278,LWC V2.00 B727,2013-04-11 23:02:00,
2013-04-11 16:07:00,74.3,25.2,29.74,NNW,331,0.0,2.0,16,0.00,,,0.00,327,LWC V2.00 B727,2013-04-11 23:07:00,
2013-04-11 16:12:00,75.6,24.7,29.74,NW,321,3.0,6.0,15,0.00,,,0.00,643,LWC V2.00 B727,2013-04-11 23:12:00,
2013-04-11 16:17:00,76.7,25.6,29.73,NNW,330,2.0,5.0,15,0.00,,,0.00,513,LWC V2.00 B727,2013-04-11 23:17:00,
2013-04-11 16:22:00,76.6,23.8,29.74,WNW,297,2.0,5.0,14,0.00,,,0.00,392,LWC V2.00 B727,2013-04-11 23:22:00,
2013-04-11 16:27:00,75.8,24.9,29.74,NNW,347,0.0,3.0,15,0.00,,,0.00,283,LWC V2.00 B727,2013-04-11 23:27:00,
2013-04-11 16:32:00,75.6,24.7,29.73,North,351,1.0,4.0,15,0.00,,,0.00,410,LWC V2.00 B727,2013-04-11 23:32:00,
2013-04-11 16:37:00,75.2,22.7,29.73,WNW,299,0.0,5.0,14,0.00,,,0.00,213,LWC V2.00 B727,2013-04-11 23:37:00,
2013-04-11 16:42:00,75.0,24.2,29.73,NW,312,2.0,3.0,15,0.00,,,0.00,455,LWC V2.00 B727,2013-04-11 23:42:00,
2013-04-11 16:47:00,75.0,24.2,29.73,NW,315,0.0,4.0,15,0.00,,,0.00,348,LWC V2.00 B727,2013-04-11 23:47:00,
2013-04-11 16:52:00,74.1,25.0,29.73,NNW,339,2.0,3.0,16,0.00,,,0.00,452,LWC V2.00 B727,2013-04-11 23:52:00,
2013-04-11 16:57:00,75.6,24.7,29.73,North,0,2.0,2.0,15,0.00,,,0.00,339,LWC V2.00 B727,2013-04-11 23:57:00,
2013-04-11 17:02:00,74.8,24.1,29.73,North,0,1.0,6.0,15,0.00,,,0.00,206,LWC V2.00 B727,2013-04-12 00:02:00,
2013-04-11 17:07:00,74.2,23.6,29.73,NNE,12,0.0,3.0,15,0.00,,,0.00,255,LWC V2.00 B727,2013-04-12 00:07:00,
2013-04-11 17:12:00,74.4,25.3,29.73,NNE,13,1.0,1.0,16,0.00,,,0.00,343,LWC V2.00 B727,2013-04-12 00:12:00,
2013-04-11 17:17:00,74.6,23.9,29.73,NW,315,0.0,4.0,15,0.00,,,0.00,276,LWC V2.00 B727,2013-04-12 00:17:00,
2013-04-11 17:22:00,74.5,25.4,29.72,North,355,0.0,4.0,16,0.00,,,0.00,237,LWC V2.00 B727,2013-04-12 00:22:00,
2013-04-11 17:27:00,74.0,23.4,29.72,North,0,2.0,4.0,15,0.00,,,0.00,264,LWC V2.00 B727,2013-04-12 00:27:00,
2013-04-11 17:32:00,73.9,24.9,29.72,NNE,16,1.0,5.0,16,0.00,,,0.00,250,LWC V2.00 B727,2013-04-12 00:32:00,
2013-04-11 17:37:00,73.9,24.9,29.72,NNE,15,0.0,1.0,16,0.00,,,0.00,214,LWC V2.00 B727,2013-04-12 00:37:00,
2013-04-11 17:42:00,73.7,26.2,29.72,NNE,15,0.0,2.0,17,0.00,,,0.00,169,LWC V2.00 B727,2013-04-12 00:42:00,
2013-04-11 17:47:00,73.5,24.6,29.72,North,5,0.0,3.0,16,0.00,,,0.00,130,LWC V2.00 B727,2013-04-12 00:47:00,
2013-04-11 17:52:00,73.3,24.4,29.72,NW,309,0.0,5.0,16,0.00,,,0.00,105,LWC V2.00 B727,2013-04-12 00:52:00,
2013-04-11 17:57:00,72.8,24.0,29.72,NW,306,0.0,3.0,16,0.00,,,0.00,72,LWC V2.00 B727,2013-04-12 00:57:00,
2013-04-11 18:02:00,72.5,25.2,29.72,NW,306,0.0,0.0,17,0.00,,,0.00,107,LWC V2.00 B727,2013-04-12 01:02:00,
2013-04-11 18:07:00,72.5,26.6,29.72,North,5,0.0,5.0,18,0.00,,,0.00,91,LWC V2.00 B727,2013-04-12 01:07:00,
2013-04-11 18:12:00,72.5,25.2,29.72,North,5,0.0,1.0,17,0.00,,,0.00,77,LWC V2.00 B727,2013-04-12 01:12:00,
2013-04-11 18:17:00,72.1,24.9,29.72,North,11,3.0,4.0,17,0.00,,,0.00,49,LWC V2.00 B727,2013-04-12 01:17:00,
2013-04-11 18:22:00,71.6,24.5,29.72,NNE,17,0.0,4.0,17,0.00,,,0.00,46,LWC V2.00 B727,2013-04-12 01:22:00,
2013-04-11 18:27:00,71.2,25.5,29.72,NNW,340,0.0,1.0,18,0.00,,,0.00,35,LWC V2.00 B727,2013-04-12 01:27:00,
2013-04-11 18:32:00,70.9,25.3,29.71,NNW,345,2.0,3.0,18,0.00,,,0.00,23,LWC V2.00 B727,2013-04-12 01:32:00,
2013-04-11 18:37:00,70.3,24.8,29.71,North,5,0.0,2.0,18,0.00,,,0.00,19,LWC V2.00 B727,2013-04-12 01:37:00,
2013-04-11 18:42:00,69.6,24.2,29.72,North,5,1.0,3.0,18,0.00,,,0.00,14,LWC V2.00 B727,2013-04-12 01:42:00,
2013-04-11 18:47:00,69.0,25.0,29.71,North,5,0.0,3.0,19,0.00,,,0.00,9,LWC V2.00 B727,2013-04-12 01:47:00,
2013-04-11 18:52:00,68.3,25.7,29.71,North,5,0.0,2.0,20,0.00,,,0.00,5,LWC V2.00 B727,2013-04-12 01:52:00,
2013-04-11 18:57:00,67.8,25.3,29.71,North,5,0.0,0.0,20,0.00,,,0.00,0,LWC V2.00 B727,2013-04-12 01:57:00,
2013-04-11 19:02:00,67.0,25.8,29.71,North,5,0.0,0.0,21,0.00,,,0.00,0,LWC V2.00 B727,2013-04-12 02:02:00,
2013-04-11 19:07:00,66.5,25.4,29.71,North,5,0.0,2.0,21,0.00,,,0.00,0,LWC V2.00 B727,2013-04-12 02:07:00,
2013-04-11 19:12:00,66.1,26.2,29.71,NNE,29,1.0,4.0,22,0.00,,,0.00,0,LWC V2.00 B727,2013-04-12 02:12:00,
2013-04-11 19:17:00,66.0,26.1,29.71,NNE,30,1.0,3.0,22,0.00,,,0.00,0,LWC V2.00 B727,2013-04-12 02:17:00,
2013-04-11 19:22:00,65.7,25.8,29.71,NNE,32,0.0,3.0,22,0.00,,,0.00,0,LWC V2.00 B727,2013-04-12 02:22:00,
2013-04-11 19:27:00,65.7,25.8,29.71,ENE,57,3.0,4.0,22,0.00,,,0.00,0,LWC V2.00 B727,2013-04-12 02:27:00,
2013-04-11 19:32:00,65.7,26.9,29.71,ENE,62,2.0,4.0,23,0.00,,,0.00,0,LWC V2.00 B727,2013-04-12 02:32:00,
2013-04-11 19:37:00,65.2,28.5,29.71,ENE,61,0.0,3.0,25,0.00,,,0.00,0,LWC V2.00 B727,2013-04-12 02:37:00,
2013-04-11 19:42:00,64.7,29.0,29.72,ENE,61,0.0,3.0,26,0.00,,,0.00,0,LWC V2.00 B727,2013-04-12 02:42:00,
2013-04-11 19:47:00,64.6,28.9,29.72,ENE,61,1.0,4.0,26,0.00,,,0.00,0,LWC V2.00 B727,2013-04-12 02:47:00,
2013-04-11 19:52:00,64.6,28.9,29.72,NE,45,3.0,5.0,26,0.00,,,0.00,0,LWC V2.00 B727,2013-04-12 02:52:00,
2013-04-11 19:57:00,64.7,29.0,29.72,NE,46,0.0,3.0,26,0.00,,,0.00,0,LWC V2.00 B727,2013-04-12 02:57:00,
2013-04-11 20:02:00,64.8,29.1,29.72,NE,47,0.0,5.0,26,0.00,,,0.00,0,LWC V2.00 B727,2013-04-12 03:02:00,
2013-04-11 20:07:00,64.9,28.2,29.73,ENE,61,2.0,4.0,25,0.00,,,0.00,0,LWC V2.00 B727,2013-04-12 03:07:00,
2013-04-11 20:12:00,64.8,29.1,29.73,ENE,61,0.0,2.0,26,0.00,,,0.00,0,LWC V2.00 B727,2013-04-12 03:12:00,
2013-04-11 20:17:00,64.7,29.0,29.73,ENE,62,1.0,4.0,26,0.00,,,0.00,0,LWC V2.00 B727,2013-04-12 03:17:00,
2013-04-11 20:22:00,64.5,28.9,29.72,ENE,63,1.0,2.0,26,0.00,,,0.00,0,LWC V2.00 B727,2013-04-12 03:22:00,
2013-04-11 20:27:00,64.2,28.6,29.72,ENE,63,2.0,3.0,26,0.00,,,0.00,0,LWC V2.00 B727,2013-04-12 03:27:00,
2013-04-11 20:32:00,64.3,28.7,29.73,ENE,63,0.0,4.0,26,0.00,,,0.00,0,LWC V2.00 B727,2013-04-12 03:32:00,
2013-04-11 20:37:00,64.7,27.1,29.73,ENE,63,1.0,4.0,24,0.00,,,0.00,0,LWC V2.00 B727,2013-04-12 03:37:00,
2013-04-11 20:42:00,64.4,28.8,29.73,ENE,63,0.0,0.0,26,0.00,,,0.00,0,LWC V2.00 B727,2013-04-12 03:42:00,
2013-04-11 20:47:00,63.2,28.7,29.73,ENE,63,2.0,2.0,27,0.00,,,0.00,0,LWC V2.00 B727,2013-04-12 03:47:00,
2013-04-11 20:52:00,63.7,28.2,29.73,ENE,63,0.0,1.0,26,0.00,,,0.00,0,LWC V2.00 B727,2013-04-12 03:52:00,
2013-04-11 20:57:00,63.8,27.3,29.73,ENE,63,0.0,1.0,25,0.00,,,0.00,0,LWC V2.00 B727,2013-04-12 03:57:00,
2013-04-11 21:00:00,63.6,27.1,29.73,ENE,63,0.0,0.0,25,0.00,,,0.00,0,LWC V2.00 B727,2013-04-12 04:00:00,
2013-04-11 21:05:00,63.6,27.1,29.73,ENE,63,2.0,3.0,25,0.00,,,0.00,0,LWC V2.00 B727,2013-04-12 04:05:00,
2013-04-11 21:06:00,63.5,28.0,29.73,ENE,63,2.0,4.0,26,0.00,,,0.00,0,LWC V2.00 B727,2013-04-12 04:06:00,
2013-04-11 21:11:00,62.9,28.4,29.73,ENE,63,0.0,1.0,27,0.00,,,0.00,0,LWC V2.00 B727,2013-04-12 04:11:00,
2013-04-11 21:16:00,61.9,28.4,29.73,ENE,63,0.0,0.0,28,0.00,,,0.00,0,LWC V2.00 B727,2013-04-12 04:16:00,
2013-04-11 21:21:00,61.4,28.0,29.73,ENE,63,2.0,4.0,28,0.00,,,0.00,0,LWC V2.00 B727,2013-04-12 04:21:00,
2013-04-11 21:26:00,62.0,27.6,29.73,ENE,63,2.0,3.0,27,0.00,,,0.00,0,LWC V2.00 B727,2013-04-12 04:26:00,
2013-04-11 21:31:00,62.1,27.7,29.73,ENE,63,2.0,3.0,27,0.00,,,0.00,0,LWC V2.00 B727,2013-04-12 04:31:00,
2013-04-11 21:36:00,62.1,28.6,29.73,ENE,63,0.0,3.0,28,0.00,,,0.00,0,LWC V2.00 B727,2013-04-12 04:36:00,
2013-04-11 21:41:00,62.1,27.7,29.73,ENE,63,2.0,3.0,27,0.00,,,0.00,0,LWC V2.00 B727,2013-04-12 04:41:00,
2013-04-11 21:46:00,62.1,27.7,29.73,ENE,64,2.0,3.0,27,0.00,,,0.00,0,LWC V2.00 B727,2013-04-12 04:46:00,
2013-04-11 21:51:00,62.3,27.0,29.73,ENE,67,3.0,4.0,26,0.00,,,0.00,0,LWC V2.00 B727,2013-04-12 04:51:00,
2013-04-11 21:56:00,62.3,27.0,29.73,ENE,67,1.0,3.0,26,0.00,,,0.00,0,LWC V2.00 B727,2013-04-12 04:56:00,
2013-04-11 22:01:00,62.0,26.7,29.72,ENE,67,0.0,1.0,26,0.00,,,0.00,0,LWC V2.00 B727,2013-04-12 05:01:00,
2013-04-11 22:06:00,61.7,27.4,29.72,ENE,67,0.0,1.0,27,0.00,,,0.00,0,LWC V2.00 B727,2013-04-12 05:06:00,
2013-04-11 22:11:00,60.4,28.0,29.72,ENE,67,0.0,1.0,29,0.00,,,0.00,0,LWC V2.00 B727,2013-04-12 05:11:00,
2013-04-11 22:16:00,59.8,27.5,29.72,ENE,67,1.0,2.0,29,0.00,,,0.00,0,LWC V2.00 B727,2013-04-12 05:16:00,
2013-04-11 22:21:00,61.1,26.0,29.72,ENE,67,0.0,2.0,26,0.00,,,0.00,0,LWC V2.00 B727,2013-04-12 05:21:00,
2013-04-11 22:26:00,62.5,26.2,29.72,ENE,67,1.0,1.0,25,0.00,,,0.00,0,LWC V2.00 B727,2013-04-12 05:26:00,
2013-04-11 22:31:00,62.5,27.2,29.72,ENE,67,0.0,1.0,26,0.00,,,0.00,0,LWC V2.00 B727,2013-04-12 05:31:00,
2013-04-11 22:36:00,60.6,26.4,29.72,ENE,67,0.0,1.0,27,0.00,,,0.00,0,LWC V2.00 B727,2013-04-12 05:36:00,
2013-04-11 22:41:00,60.7,26.5,29.72,ENE,67,0.0,1.0,27,0.00,,,0.00,0,LWC V2.00 B727,2013-04-12 05:41:00,
2013-04-11 22:46:00,60.7,27.4,29.72,ENE,67,0.0,1.0,28,0.00,,,0.00,0,LWC V2.00 B727,2013-04-12 05:46:00,
2013-04-11 22:51:00,59.8,28.3,29.72,ENE,67,0.0,0.0,30,0.00,,,0.00,0,LWC V2.00 B727,2013-04-12 05:51:00,
2013-04-11 22:56:00,58.9,27.5,29.72,ENE,66,3.0,3.0,30,0.00,,,0.00,0,LWC V2.00 B727,2013-04-12 05:56:00,
2013-04-11 23:01:00,60.2,26.1,29.72,ENE,66,1.0,1.0,27,0.00,,,0.00,0,LWC V2.00 B727,2013-04-12 06:01:00,
2013-04-11 23:06:00,60.7,26.5,29.72,ENE,66,0.0,3.0,27,0.00,,,0.00,0,LWC V2.00 B727,2013-04-12 06:06:00,
2013-04-11 23:11:00,61.1,26.9,29.72,ENE,67,3.0,4.0,27,0.00,,,0.00,0,LWC V2.00 B727,2013-04-12 06:11:00,
2013-04-11 23:16:00,59.9,27.6,29.72,ENE,67,0.0,1.0,29,0.00,,,0.00,0,LWC V2.00 B727,2013-04-12 06:16:00,
2013-04-11 23:21:00,59.8,27.5,29.71,ENE,67,1.0,4.0,29,0.00,,,0.00,0,LWC V2.00 B727,2013-04-12 06:21:00,
2013-04-11 23:26:00,60.1,27.7,29.72,ENE,67,1.0,2.0,29,0.00,,,0.00,0,LWC V2.00 B727,2013-04-12 06:26:00,
2013-04-11 23:31:00,59.5,28.0,29.72,ENE,67,0.0,0.0,30,0.00,,,0.00,0,LWC V2.00 B727,2013-04-12 06:31:00,
2013-04-11 23:36:00,58.2,27.7,29.72,ENE,67,1.0,1.0,31,0.00,,,0.00,0,LWC V2.00 B727,2013-04-12 06:36:00,
2013-04-11 23:41:00,58.3,27.0,29.72,ENE,67,0.0,0.0,30,0.00,,,0.00,0,LWC V2.00 B727,2013-04-12 06:41:00,
2013-04-11 23:46:00,59.2,27.0,29.72,ENE,67,0.0,0.0,29,0.00,,,0.00,0,LWC V2.00 B727,2013-04-12 06:46:00,
2013-04-11 23:51:00,59.5,27.2,29.72,ENE,67,0.0,1.0,29,0.00,,,0.00,0,LWC V2.00 B727,2013-04-12 06:51:00,
2013-04-11 23:56:00,59.3,27.1,29.72,ENE,67,1.0,1.0,29,0.00,,,0.00,0,LWC V2.00 B727,2013-04-12 06:56:00,